createdAt,value
2023-04-20T00:00:41.533Z,98606.88
2023-04-20T00:01:43.342Z,98597.28
2023-04-20T00:02:47.499Z,98594.69
2023-04-20T00:03:49.598Z,98594.69
2023-04-20T00:04:53.279Z,98603.44
2023-04-20T00:05:55.162Z,98607.09
2023-04-20T00:06:58.690Z,98590.66
2023-04-20T00:08:01.164Z,98607.34
2023-04-20T00:09:04.628Z,98603.06
2023-04-20T00:10:08.809Z,98604.84
2023-04-20T00:11:11.572Z,98606.53
2023-04-20T00:12:13.354Z,98604.03
2023-04-20T00:13:16.144Z,98597.88
2023-04-20T00:14:18.841Z,98600.59
2023-04-20T00:15:21.646Z,98597.03
2023-04-20T00:16:23.511Z,98593.63
2023-04-20T00:17:26.428Z,98594.56
2023-04-20T00:18:29.579Z,98596.47
2023-04-20T00:19:33.784Z,98590.66
2023-04-20T00:20:35.913Z,98590.81
2023-04-20T00:21:38.753Z,98589.13
2023-04-20T00:22:40.692Z,98585.69
2023-04-20T00:23:43.497Z,98589.97
2023-04-20T00:24:45.310Z,98588.19
2023-04-20T00:25:49.656Z,98585.59
2023-04-20T00:26:51.462Z,98588.19
2023-04-20T00:27:54.568Z,98588.06
2023-04-20T00:28:56.525Z,98585.34
2023-04-20T00:29:59.354Z,98581.91
2023-04-20T00:31:01.621Z,98585.34
2023-04-20T00:32:04.820Z,98588.66
2023-04-20T00:33:06.627Z,98588.53
2023-04-20T00:34:11.950Z,98588.66
2023-04-20T00:35:13.900Z,98588.66
2023-04-20T00:36:16.742Z,98591.50
2023-04-20T00:37:18.516Z,98591.38
2023-04-20T00:38:21.340Z,98587.00
2023-04-20T00:39:23.153Z,98584.38
2023-04-20T00:40:25.936Z,98585.34
2023-04-20T00:41:27.871Z,98587.00
2023-04-20T00:42:30.693Z,98587.94
2023-04-20T00:43:32.547Z,98590.53
2023-04-20T00:44:35.519Z,98589.72
2023-04-20T00:45:37.469Z,98582.03
2023-04-20T00:46:41.262Z,98590.81
2023-04-20T00:47:43.511Z,98592.69
2023-04-20T00:48:46.467Z,98584.88
2023-04-20T00:49:49.822Z,98587.47
2023-04-20T00:50:53.474Z,98589.97
2023-04-20T00:51:55.623Z,98595.88
2023-04-20T00:52:58.501Z,98592.19
2023-04-20T00:54:00.601Z,98592.91
2023-04-20T00:55:04.648Z,98594.34
2023-04-20T00:56:07.408Z,98581.22
2023-04-20T00:57:12.442Z,98585.31
2023-04-20T00:58:14.278Z,98582.72
2023-04-20T00:59:17.377Z,98588.66
2023-04-20T01:00:21.360Z,98585.94
2023-04-20T01:01:24.783Z,98586.53
2023-04-20T01:02:27.966Z,98594.19
2023-04-20T01:03:31.500Z,98582.84
2023-04-20T01:04:36.159Z,98578.22
2023-04-20T01:05:40.513Z,98588.41
2023-04-20T01:06:42.754Z,98587.47
2023-04-20T01:07:45.726Z,98587.31
2023-04-20T01:08:48.913Z,98583.66
2023-04-20T01:09:51.785Z,98588.75
2023-04-20T01:10:54.119Z,98587.78
2023-04-20T01:11:57.006Z,98589.56
2023-04-20T01:12:59.621Z,98583.41
2023-04-20T01:14:02.441Z,98579.97
2023-04-20T01:15:08.098Z,98579.97
2023-04-20T01:16:11.696Z,98578.34
2023-04-20T01:17:15.040Z,98581.75
2023-04-20T01:18:21.475Z,98583.53
2023-04-20T01:19:23.948Z,98580.09
2023-04-20T01:20:26.725Z,98578.34
2023-04-20T01:21:31.067Z,98581.06
2023-04-20T01:22:44.324Z,98579.38
2023-04-20T01:23:48.908Z,98580.34
2023-04-20T01:24:51.974Z,98580.22
2023-04-20T01:25:55.877Z,98570.88
2023-04-20T01:26:57.766Z,98582.94
2023-04-20T01:28:02.050Z,98574.31
2023-04-20T01:29:04.423Z,98573.34
2023-04-20T01:30:08.434Z,98571.72
2023-04-20T01:31:13.663Z,98575.97
2023-04-20T01:32:16.845Z,98575.13
2023-04-20T01:33:18.613Z,98571.47
2023-04-20T01:34:21.430Z,98567.09
2023-04-20T01:35:23.309Z,98579.16
2023-04-20T01:36:26.077Z,98574.78
2023-04-20T01:37:27.905Z,98570.38
2023-04-20T01:38:34.513Z,98579.75
2023-04-20T01:39:36.737Z,98575.38
2023-04-20T01:40:40.269Z,98577.84
2023-04-20T01:41:42.166Z,98575.25
2023-04-20T01:42:44.949Z,98576.06
2023-04-20T01:43:46.770Z,98582.91
2023-04-20T01:44:49.763Z,98577.72
2023-04-20T01:45:51.616Z,98574.19
2023-04-20T01:46:54.775Z,98577.59
2023-04-20T01:47:56.713Z,98577.59
2023-04-20T01:48:59.531Z,98574.19
2023-04-20T01:50:01.403Z,98579.25
2023-04-20T01:51:04.515Z,98581.03
2023-04-20T01:52:09.065Z,98581.13
2023-04-20T01:53:13.634Z,98579.50
2023-04-20T01:54:17.153Z,98578.66
2023-04-20T01:55:20.749Z,98579.63
2023-04-20T01:56:22.561Z,98578.66
2023-04-20T01:57:25.697Z,98576.88
2023-04-20T01:58:27.524Z,98571.81
2023-04-20T01:59:30.712Z,98576.19
2023-04-20T02:00:33.283Z,98571.94
2023-04-20T02:01:36.127Z,98579.63
2023-04-20T02:02:37.984Z,98574.41
2023-04-20T02:03:41.250Z,98581.41
2023-04-20T02:04:43.214Z,98581.41
2023-04-20T02:05:46.600Z,98578.06
2023-04-20T02:06:48.929Z,98573.94
2023-04-20T02:07:51.818Z,98581.88
2023-04-20T02:08:53.633Z,98578.56
2023-04-20T02:09:58.026Z,98579.66
2023-04-20T02:10:59.904Z,98581.53
2023-04-20T02:12:03.208Z,98576.56
2023-04-20T02:13:05.255Z,98585.34
2023-04-20T02:14:08.192Z,98583.66
2023-04-20T02:15:10.755Z,98581.19
2023-04-20T02:16:14.023Z,98585.56
2023-04-20T02:17:15.877Z,98582.28
2023-04-20T02:18:18.781Z,98576.34
2023-04-20T02:19:21.252Z,98579.91
2023-04-20T02:20:24.276Z,98578.38
2023-04-20T02:21:26.150Z,98584.50
2023-04-20T02:22:29.423Z,98582.97
2023-04-20T02:23:31.284Z,98584.84
2023-04-20T02:24:34.816Z,98579.78
2023-04-20T02:25:40.582Z,98583.34
2023-04-20T02:26:42.628Z,98582.66
2023-04-20T02:27:45.484Z,98582.66
2023-04-20T02:28:47.642Z,98591.28
2023-04-20T02:29:50.402Z,98581.56
2023-04-20T02:30:52.219Z,98579.66
2023-04-20T02:31:55.450Z,98582.16
2023-04-20T02:32:57.293Z,98582.03
2023-04-20T02:34:00.140Z,98586.28
2023-04-20T02:35:03.949Z,98576.59
2023-04-20T02:36:06.972Z,98582.50
2023-04-20T02:37:08.804Z,98578.94
2023-04-20T02:38:11.630Z,98578.81
2023-04-20T02:39:14.203Z,98583.09
2023-04-20T02:40:17.017Z,98582.28
2023-04-20T02:41:20.505Z,98578.13
2023-04-20T02:42:23.618Z,98574.09
2023-04-20T02:43:25.756Z,98583.69
2023-04-20T02:44:29.049Z,98579.44
2023-04-20T02:45:31.163Z,98576.00
2023-04-20T02:46:34.713Z,98579.56
2023-04-20T02:47:36.808Z,98581.34
2023-04-20T02:48:39.618Z,98578.72
2023-04-20T02:49:41.479Z,98576.22
2023-04-20T02:50:44.404Z,98580.50
2023-04-20T02:51:51.609Z,98580.59
2023-04-20T02:52:54.729Z,98584.16
2023-04-20T02:53:56.583Z,98578.13
2023-04-20T02:55:04.974Z,98580.88
2023-04-20T02:56:07.544Z,98590.44
2023-04-20T02:57:38.159Z,98587.38
2023-04-20T02:58:40.415Z,98591.00
2023-04-20T02:59:54.814Z,98586.97
2023-04-20T03:01:02.113Z,98586.28
2023-04-20T03:02:06.430Z,98583.78
2023-04-20T03:03:10.101Z,98583.88
2023-04-20T03:04:13.188Z,98586.63
2023-04-20T03:05:23.003Z,98587.56
2023-04-20T03:06:26.592Z,98590.16
2023-04-20T03:07:30.906Z,98591.00
2023-04-20T03:08:33.753Z,98595.47
2023-04-20T03:09:48.206Z,98600.09
2023-04-20T03:10:57.515Z,98598.56
2023-04-20T03:12:02.536Z,98595.25
2023-04-20T03:13:24.904Z,98601.50
2023-04-20T03:14:33.525Z,98601.63
2023-04-20T03:15:36.448Z,98600.66
2023-04-20T03:16:47.368Z,98599.75
2023-04-20T03:17:51.193Z,98603.19
2023-04-20T03:18:53.499Z,98596.19
2023-04-20T03:19:57.628Z,98599.63
2023-04-20T03:20:59.605Z,98602.22
2023-04-20T03:22:04.402Z,98598.81
2023-04-20T03:23:07.249Z,98608.25
2023-04-20T03:24:11.745Z,98605.53
2023-04-20T03:25:14.947Z,98605.53
2023-04-20T03:26:29.133Z,98605.44
2023-04-20T03:27:53.103Z,98605.44
2023-04-20T03:28:56.726Z,98603.53
2023-04-20T03:30:01.795Z,98599.97
2023-04-20T03:31:06.452Z,98607.78
2023-04-20T03:32:09.392Z,98601.63
2023-04-20T03:33:11.803Z,98603.41
2023-04-20T03:34:14.810Z,98593.00
2023-04-20T03:35:18.023Z,98595.47
2023-04-20T03:36:20.877Z,98591.94
2023-04-20T03:37:22.714Z,98598.94
2023-04-20T03:38:28.611Z,98603.19
2023-04-20T03:39:30.406Z,98601.41
2023-04-20T03:40:33.208Z,98593.81
2023-04-20T03:41:35.112Z,98609.09
2023-04-20T03:42:38.219Z,98602.09
2023-04-20T03:43:41.659Z,98608.13
2023-04-20T03:44:46.861Z,98608.97
2023-04-20T03:45:49.860Z,98613.13
2023-04-20T03:46:53.861Z,98606.13
2023-04-20T03:47:55.775Z,98608.72
2023-04-20T03:48:58.654Z,98608.72
2023-04-20T03:50:00.430Z,98613.94
2023-04-20T03:51:03.349Z,98612.03
2023-04-20T03:52:07.229Z,98613.59
2023-04-20T03:53:10.055Z,98609.22
2023-04-20T03:54:12.533Z,98612.75
2023-04-20T03:55:15.773Z,98616.19
2023-04-20T03:56:23.928Z,98613.59
2023-04-20T03:57:27.031Z,98612.63
2023-04-20T03:58:30.950Z,98611.13
2023-04-20T03:59:47.977Z,98607.78
2023-04-20T04:00:53.554Z,98611.47
2023-04-20T04:01:57.177Z,98613.13
2023-04-20T04:02:59.260Z,98622.56
2023-04-20T04:04:04.596Z,98626.00
2023-04-20T04:05:08.110Z,98626.81
2023-04-20T04:06:11.562Z,98621.53
2023-04-20T04:07:14.047Z,98620.56
2023-04-20T04:08:18.594Z,98624.00
2023-04-20T04:09:20.663Z,98622.13
2023-04-20T04:10:23.628Z,98624.63
2023-04-20T04:11:26.064Z,98621.19
2023-04-20T04:12:29.091Z,98622.03
2023-04-20T04:13:33.775Z,98617.66
2023-04-20T04:14:37.861Z,98617.66
2023-04-20T04:15:41.460Z,98615.75
2023-04-20T04:16:48.563Z,98613.88
2023-04-20T04:17:51.042Z,98618.94
2023-04-20T04:18:53.954Z,98620.72
2023-04-20T04:19:56.082Z,98611.00
2023-04-20T04:20:59.011Z,98614.34
2023-04-20T04:22:00.935Z,98614.22
2023-04-20T04:23:07.551Z,98621.91
2023-04-20T04:24:33.316Z,98613.97
2023-04-20T04:25:43.119Z,98619.75
2023-04-20T04:26:47.358Z,98615.25
2023-04-20T04:27:51.073Z,98622.00
2023-04-20T04:28:55.656Z,98610.41
2023-04-20T04:29:57.669Z,98616.31
2023-04-20T04:31:05.890Z,98618.69
2023-04-20T04:32:09.610Z,98615.75
2023-04-20T04:33:14.757Z,98620.44
2023-04-20T04:34:20.408Z,98617.50
2023-04-20T04:35:27.348Z,98622.22
2023-04-20T04:36:33.574Z,98614.16
2023-04-20T04:37:37.087Z,98616.50
2023-04-20T04:38:41.579Z,98617.09
2023-04-20T04:39:44.762Z,98616.84
2023-04-20T04:40:56.404Z,98621.00
2023-04-20T04:41:59.599Z,98628.53
2023-04-20T04:43:10.039Z,98623.09
2023-04-20T04:44:15.504Z,98623.78
2023-04-20T04:45:18.544Z,98621.91
2023-04-20T04:46:25.476Z,98626.84
2023-04-20T04:47:29.772Z,98626.75
2023-04-20T04:48:33.195Z,98631.72
2023-04-20T04:49:35.842Z,98633.38
2023-04-20T04:50:39.053Z,98634.91
2023-04-20T04:51:41.423Z,98634.66
2023-04-20T04:52:44.287Z,98636.19
2023-04-20T04:53:47.468Z,98639.38
2023-04-20T04:54:50.806Z,98640.06
2023-04-20T04:55:52.720Z,98633.91
2023-04-20T04:56:55.671Z,98636.28
2023-04-20T04:57:57.627Z,98634.50
2023-04-20T04:59:00.491Z,98633.44
2023-04-20T05:00:02.405Z,98627.94
2023-04-20T05:01:06.447Z,98637.19
2023-04-20T05:02:09.773Z,98636.09
2023-04-20T05:03:12.811Z,98626.38
2023-04-20T05:04:15.032Z,98633.94
2023-04-20T05:05:18.417Z,98632.03
2023-04-20T05:06:21.538Z,98638.78
2023-04-20T05:07:24.729Z,98641.16
2023-04-20T05:08:27.478Z,98639.13
2023-04-20T05:09:33.430Z,98643.94
2023-04-20T05:10:36.307Z,98637.66
2023-04-20T05:11:38.200Z,98639.16
2023-04-20T05:12:40.977Z,98645.34
2023-04-20T05:13:42.968Z,98641.22
2023-04-20T05:14:45.779Z,98642.56
2023-04-20T05:15:47.923Z,98644.44
2023-04-20T05:16:51.867Z,98647.31
2023-04-20T05:17:55.997Z,98647.56
2023-04-20T05:18:57.870Z,98648.66
2023-04-20T05:20:00.829Z,98654.78
2023-04-20T05:21:02.675Z,98647.09
2023-04-20T05:22:06.060Z,98649.03
2023-04-20T05:23:08.341Z,98646.28
2023-04-20T05:24:11.219Z,98648.19
2023-04-20T05:25:13.992Z,98648.31
2023-04-20T05:26:18.183Z,98651.03
2023-04-20T05:27:20.040Z,98651.88
2023-04-20T05:28:22.834Z,98658.72
2023-04-20T05:29:25.044Z,98656.13
2023-04-20T05:30:27.842Z,98660.28
2023-04-20T05:31:30.873Z,98654.78
2023-04-20T05:32:33.871Z,98662.50
2023-04-20T05:33:37.046Z,98658.72
2023-04-20T05:34:39.806Z,98663.66
2023-04-20T05:35:41.679Z,98664.25
2023-04-20T05:36:44.456Z,98661.63
2023-04-20T05:37:47.688Z,98656.16
2023-04-20T05:38:50.743Z,98650.69
2023-04-20T05:39:52.540Z,98659.09
2023-04-20T05:40:57.049Z,98657.03
2023-04-20T05:42:00.052Z,98661.88
2023-04-20T05:43:03.099Z,98653.97
2023-04-20T05:44:05.241Z,98659.72
2023-04-20T05:45:09.507Z,98657.56
2023-04-20T05:46:11.383Z,98656.34
2023-04-20T05:47:14.289Z,98655.97
2023-04-20T05:48:16.204Z,98656.28
2023-04-20T05:49:20.386Z,98653.91
2023-04-20T05:50:22.836Z,98649.94
2023-04-20T05:51:28.997Z,98654.50
2023-04-20T05:52:30.827Z,98653.59
2023-04-20T05:53:33.877Z,98652.97
2023-04-20T05:54:35.668Z,98652.84
2023-04-20T05:55:38.416Z,98655.13
2023-04-20T05:56:40.518Z,98643.19
2023-04-20T05:57:43.559Z,98647.66
2023-04-20T05:58:45.635Z,98657.28
2023-04-20T05:59:48.417Z,98651.66
2023-04-20T06:00:50.774Z,98653.16
2023-04-20T06:01:53.655Z,98643.81
2023-04-20T06:02:55.731Z,98651.66
2023-04-20T06:03:58.984Z,98653.19
2023-04-20T06:05:02.576Z,98660.75
2023-04-20T06:06:05.881Z,98653.41
2023-04-20T06:07:07.779Z,98657.41
2023-04-20T06:08:11.451Z,98655.00
2023-04-20T06:09:13.396Z,98653.81
2023-04-20T06:10:16.635Z,98666.38
2023-04-20T06:11:18.398Z,98664.22
2023-04-20T06:12:21.186Z,98660.56
2023-04-20T06:13:23.212Z,98662.91
2023-04-20T06:14:26.085Z,98663.06
2023-04-20T06:15:28.983Z,98660.75
2023-04-20T06:16:30.929Z,98662.69
2023-04-20T06:17:36.151Z,98660.91
2023-04-20T06:18:38.004Z,98666.78
2023-04-20T06:19:40.968Z,98662.00
2023-04-20T06:20:44.700Z,98668.84
2023-04-20T06:21:47.489Z,98663.00
2023-04-20T06:22:50.045Z,98673.78
2023-04-20T06:23:52.833Z,98669.78
2023-04-20T06:24:55.087Z,98661.00
2023-04-20T06:25:57.886Z,98676.38
2023-04-20T06:26:59.711Z,98675.22
2023-04-20T06:28:02.789Z,98675.16
2023-04-20T06:29:04.820Z,98674.56
2023-04-20T06:30:09.723Z,98677.53
2023-04-20T06:31:12.826Z,98676.31
2023-04-20T06:32:14.650Z,98671.41
2023-04-20T06:33:17.938Z,98671.63
2023-04-20T06:34:19.777Z,98668.38
2023-04-20T06:35:23.460Z,98668.38
2023-04-20T06:36:27.729Z,98669.06
2023-04-20T06:37:30.480Z,98672.38
2023-04-20T06:38:33.598Z,98664.88
2023-04-20T06:39:35.658Z,98664.22
2023-04-20T06:40:38.490Z,98672.63
2023-04-20T06:41:40.742Z,98662.28
2023-04-20T06:42:43.601Z,98668.53
2023-04-20T06:43:46.378Z,98669.34
2023-04-20T06:44:48.287Z,98665.91
2023-04-20T06:45:51.334Z,98665.34
2023-04-20T06:46:53.189Z,98662.22
2023-04-20T06:47:56.467Z,98665.66
2023-04-20T06:48:59.142Z,98663.84
2023-04-20T06:50:02.765Z,98665.88
2023-04-20T06:51:05.813Z,98662.50
2023-04-20T06:52:09.024Z,98669.91
2023-04-20T06:53:11.781Z,98668.09
2023-04-20T06:54:13.767Z,98659.84
2023-04-20T06:55:16.542Z,98669.75
2023-04-20T06:56:18.380Z,98667.59
2023-04-20T06:57:21.405Z,98664.63
2023-04-20T06:58:23.228Z,98668.25
2023-04-20T06:59:26.023Z,98667.41
2023-04-20T07:00:29.270Z,98669.22
2023-04-20T07:01:31.312Z,98663.47
2023-04-20T07:02:44.274Z,98670.22
2023-04-20T07:03:47.616Z,98675.34
2023-04-20T07:04:49.551Z,98667.59
2023-04-20T07:05:52.348Z,98671.84
2023-04-20T07:06:54.611Z,98670.88
2023-04-20T07:07:58.809Z,98667.09
2023-04-20T07:09:01.726Z,98675.81
2023-04-20T07:10:03.916Z,98667.75
2023-04-20T07:11:06.898Z,98673.50
2023-04-20T07:12:09.705Z,98674.97
2023-04-20T07:13:16.115Z,98672.34
2023-04-20T07:14:17.914Z,98664.38
2023-04-20T07:15:20.835Z,98672.09
2023-04-20T07:16:22.700Z,98675.53
2023-04-20T07:17:29.307Z,98675.41
2023-04-20T07:18:34.673Z,98670.44
2023-04-20T07:19:37.251Z,98680.84
2023-04-20T07:20:40.158Z,98677.19
2023-04-20T07:21:42.089Z,98678.66
2023-04-20T07:22:45.043Z,98681.47
2023-04-20T07:23:48.403Z,98689.56
2023-04-20T07:24:51.624Z,98681.34
2023-04-20T07:25:53.527Z,98683.31
2023-04-20T07:26:57.184Z,98685.28
2023-04-20T07:28:00.013Z,98686.78
2023-04-20T07:29:02.294Z,98689.59
2023-04-20T07:30:06.400Z,98683.69
2023-04-20T07:31:09.177Z,98683.38
2023-04-20T07:32:11.403Z,98686.00
2023-04-20T07:33:14.494Z,98687.16
2023-04-20T07:34:16.773Z,98686.69
2023-04-20T07:35:19.647Z,98689.00
2023-04-20T07:36:22.509Z,98683.88
2023-04-20T07:37:27.190Z,98684.19
2023-04-20T07:38:29.628Z,98681.88
2023-04-20T07:39:33.730Z,98686.66
2023-04-20T07:40:35.553Z,98684.69
2023-04-20T07:41:38.393Z,98685.81
2023-04-20T07:42:40.408Z,98680.41
2023-04-20T07:43:44.706Z,98679.28
2023-04-20T07:44:47.576Z,98680.22
2023-04-20T07:45:50.348Z,98678.78
2023-04-20T07:46:52.172Z,98672.69
2023-04-20T07:47:55.651Z,98674.00
2023-04-20T07:48:57.593Z,98668.22
2023-04-20T07:50:00.460Z,98674.47
2023-04-20T07:51:03.424Z,98675.09
2023-04-20T07:52:15.853Z,98671.78
2023-04-20T07:53:19.539Z,98671.78
2023-04-20T07:54:21.425Z,98681.69
2023-04-20T07:55:25.757Z,98674.59
2023-04-20T07:56:27.537Z,98670.97
2023-04-20T07:57:30.668Z,98683.34
2023-04-20T07:58:32.479Z,98680.38
2023-04-20T07:59:35.272Z,98678.06
2023-04-20T08:00:38.097Z,98682.06
2023-04-20T08:01:39.881Z,98687.16
2023-04-20T08:02:42.855Z,98685.34
2023-04-20T08:03:46.000Z,98691.63
2023-04-20T08:04:49.055Z,98682.56
2023-04-20T08:05:52.084Z,98685.53
2023-04-20T08:06:54.032Z,98681.91
2023-04-20T08:07:56.794Z,98684.53
2023-04-20T08:08:59.586Z,98688.47
2023-04-20T08:10:03.358Z,98683.56
2023-04-20T08:11:08.103Z,98679.78
2023-04-20T08:12:11.014Z,98681.25
2023-04-20T08:13:13.834Z,98679.44
2023-04-20T08:14:16.327Z,98676.97
2023-04-20T08:15:19.672Z,98682.38
2023-04-20T08:16:22.953Z,98690.28
2023-04-20T08:17:25.830Z,98687.13
2023-04-20T08:18:30.386Z,98680.34
2023-04-20T08:19:32.289Z,98687.09
2023-04-20T08:20:35.303Z,98689.03
2023-04-20T08:21:37.424Z,98683.06
2023-04-20T08:22:40.774Z,98684.81
2023-04-20T08:23:43.639Z,98686.94
2023-04-20T08:24:45.583Z,98687.06
2023-04-20T08:25:48.438Z,98688.19
2023-04-20T08:26:51.587Z,98691.00
2023-04-20T08:27:54.370Z,98690.38
2023-04-20T08:28:56.425Z,98687.88
2023-04-20T08:29:59.256Z,98688.25
2023-04-20T08:31:01.273Z,98685.13
2023-04-20T08:32:04.444Z,98687.75
2023-04-20T08:33:07.427Z,98688.06
2023-04-20T08:34:09.268Z,98687.38
2023-04-20T08:35:13.490Z,98689.78
2023-04-20T08:36:16.476Z,98685.31
2023-04-20T08:37:19.511Z,98686.41
2023-04-20T08:38:30.804Z,98687.84
2023-04-20T08:39:36.529Z,98696.03
2023-04-20T08:40:39.324Z,98689.34
2023-04-20T08:41:41.345Z,98696.31
2023-04-20T08:42:45.494Z,98691.91
2023-04-20T08:43:50.003Z,98693.03
2023-04-20T08:44:53.828Z,98696.72
2023-04-20T08:45:58.626Z,98692.81
2023-04-20T08:47:01.566Z,98694.88
2023-04-20T08:48:06.602Z,98684.13
2023-04-20T08:49:13.143Z,98685.31
2023-04-20T08:50:16.984Z,98691.59
2023-04-20T08:51:19.877Z,98685.50
2023-04-20T08:52:21.729Z,98696.06
2023-04-20T08:53:24.584Z,98689.56
2023-04-20T08:54:27.482Z,98688.91
2023-04-20T08:55:29.473Z,98693.28
2023-04-20T08:56:36.970Z,98685.41
2023-04-20T08:57:38.944Z,98683.44
2023-04-20T08:58:43.167Z,98687.72
2023-04-20T08:59:45.976Z,98688.63
2023-04-20T09:00:48.438Z,98694.63
2023-04-20T09:01:51.435Z,98693.22
2023-04-20T09:02:55.120Z,98693.16
2023-04-20T09:03:58.148Z,98691.03
2023-04-20T09:05:04.727Z,98686.28
2023-04-20T09:06:14.825Z,98694.22
2023-04-20T09:07:22.310Z,98691.50
2023-04-20T09:08:35.731Z,98690.75
2023-04-20T09:09:38.718Z,98692.53
2023-04-20T09:10:42.547Z,98692.41
2023-04-20T09:11:45.832Z,98693.94
2023-04-20T09:12:47.675Z,98685.25
2023-04-20T09:14:02.761Z,98693.13
2023-04-20T09:15:06.086Z,98688.78
2023-04-20T09:16:12.661Z,98686.72
2023-04-20T09:17:17.673Z,98684.25
2023-04-20T09:18:20.668Z,98684.63
2023-04-20T09:19:25.088Z,98681.41
2023-04-20T09:20:31.579Z,98692.19
2023-04-20T09:21:34.452Z,98687.03
2023-04-20T09:22:37.147Z,98684.13
2023-04-20T09:23:41.632Z,98685.25
2023-04-20T09:24:43.487Z,98685.38
2023-04-20T09:25:52.334Z,98693.28
2023-04-20T09:26:54.210Z,98695.09
2023-04-20T09:27:58.402Z,98687.22
2023-04-20T09:29:03.115Z,98688.97
2023-04-20T09:30:07.839Z,98695.53
2023-04-20T09:31:19.125Z,98687.66
2023-04-20T09:32:22.658Z,98687.69
2023-04-20T09:33:29.363Z,98694.63
2023-04-20T09:34:32.153Z,98690.44
2023-04-20T09:35:34.172Z,98696.38
2023-04-20T09:36:38.862Z,98686.63
2023-04-20T09:37:47.843Z,98689.16
2023-04-20T09:39:03.801Z,98685.13
2023-04-20T09:40:08.719Z,98689.25
2023-04-20T09:41:10.810Z,98687.63
2023-04-20T09:42:15.041Z,98692.06
2023-04-20T09:43:19.054Z,98692.06
2023-04-20T09:44:23.197Z,98683.97
2023-04-20T09:45:25.648Z,98686.16
2023-04-20T09:46:31.378Z,98681.06
2023-04-20T09:47:35.300Z,98686.53
2023-04-20T09:48:38.130Z,98677.94
2023-04-20T09:49:40.952Z,98676.94
2023-04-20T09:50:49.762Z,98680.50
2023-04-20T09:51:54.455Z,98681.25
2023-04-20T09:52:56.871Z,98684.53
2023-04-20T09:54:01.262Z,98678.75
2023-04-20T09:55:03.269Z,98684.41
2023-04-20T09:56:06.915Z,98677.75
2023-04-20T09:57:11.315Z,98672.72
2023-04-20T09:58:13.672Z,98672.81
2023-04-20T09:59:18.397Z,98679.75
2023-04-20T10:00:23.157Z,98678.09
2023-04-20T10:01:26.188Z,98679.84
2023-04-20T10:02:28.332Z,98673.38
2023-04-20T10:03:31.345Z,98684.25
2023-04-20T10:04:34.318Z,98685.88
2023-04-20T10:05:37.220Z,98683.03
2023-04-20T10:06:40.053Z,98681.66
2023-04-20T10:07:42.915Z,98679.28
2023-04-20T10:08:44.796Z,98685.28
2023-04-20T10:09:47.611Z,98680.34
2023-04-20T10:10:50.559Z,98681.34
2023-04-20T10:11:55.711Z,98676.41
2023-04-20T10:13:01.729Z,98684.25
2023-04-20T10:14:15.602Z,98683.50
2023-04-20T10:15:19.179Z,98680.56
2023-04-20T10:16:22.391Z,98679.28
2023-04-20T10:17:31.199Z,98675.72
2023-04-20T10:18:34.302Z,98677.59
2023-04-20T10:19:37.879Z,98673.19
2023-04-20T10:20:40.977Z,98675.03
2023-04-20T10:21:48.008Z,98673.44
2023-04-20T10:22:51.298Z,98678.69
2023-04-20T10:23:54.698Z,98668.34
2023-04-20T10:24:56.591Z,98668.56
2023-04-20T10:26:00.928Z,98680.97
2023-04-20T10:27:04.177Z,98680.84
2023-04-20T10:28:09.713Z,98674.09
2023-04-20T10:29:13.410Z,98671.97
2023-04-20T10:30:16.591Z,98675.25
2023-04-20T10:31:20.785Z,98672.94
2023-04-20T10:32:24.887Z,98669.06
2023-04-20T10:33:28.201Z,98676.09
2023-04-20T10:34:31.485Z,98673.94
2023-04-20T10:35:46.020Z,98670.84
2023-04-20T10:36:48.592Z,98672.44
2023-04-20T10:37:52.517Z,98674.38
2023-04-20T10:38:54.771Z,98676.22
2023-04-20T10:39:57.573Z,98679.63
2023-04-20T10:41:07.446Z,98667.16
2023-04-20T10:42:09.710Z,98663.34
2023-04-20T10:43:22.387Z,98661.31
2023-04-20T10:44:25.351Z,98675.84
2023-04-20T10:45:34.445Z,98661.22
2023-04-20T10:46:37.345Z,98665.59
2023-04-20T10:47:40.982Z,98669.22
2023-04-20T10:48:54.161Z,98660.72
2023-04-20T10:50:07.705Z,98662.63
2023-04-20T10:51:10.134Z,98663.88
2023-04-20T10:52:12.898Z,98665.97
2023-04-20T10:53:19.218Z,98668.88
2023-04-20T10:54:22.053Z,98666.91
2023-04-20T10:55:26.469Z,98664.13
2023-04-20T10:56:28.295Z,98656.69
2023-04-20T10:57:31.562Z,98665.88
2023-04-20T10:58:33.438Z,98653.22
2023-04-20T10:59:37.250Z,98670.25
2023-04-20T11:00:40.073Z,98659.13
2023-04-20T11:01:42.701Z,98661.63
2023-04-20T11:02:53.965Z,98657.38
2023-04-20T11:03:56.210Z,98663.94
2023-04-20T11:05:01.225Z,98663.75
2023-04-20T11:06:04.111Z,98664.97
2023-04-20T11:07:08.728Z,98665.66
2023-04-20T11:08:10.548Z,98670.09
2023-04-20T11:09:20.733Z,98672.53
2023-04-20T11:10:26.886Z,98666.41
2023-04-20T11:11:28.686Z,98660.94
2023-04-20T11:12:39.737Z,98665.00
2023-04-20T11:13:41.574Z,98662.97
2023-04-20T11:14:52.864Z,98668.69
2023-04-20T11:15:54.745Z,98662.34
2023-04-20T11:16:57.895Z,98659.91
2023-04-20T11:18:09.015Z,98661.78
2023-04-20T11:19:11.965Z,98660.34
2023-04-20T11:20:17.015Z,98659.59
2023-04-20T11:21:19.216Z,98668.19
2023-04-20T11:22:22.836Z,98664.91
2023-04-20T11:23:25.927Z,98668.19
2023-04-20T11:24:30.856Z,98665.41
2023-04-20T11:25:32.662Z,98677.94
2023-04-20T11:26:37.085Z,98665.09
2023-04-20T11:27:41.063Z,98670.72
2023-04-20T11:28:55.173Z,98677.03
2023-04-20T11:29:59.861Z,98670.50
2023-04-20T11:31:02.309Z,98668.88
2023-04-20T11:32:07.360Z,98679.31
2023-04-20T11:33:11.062Z,98678.16
2023-04-20T11:34:18.914Z,98674.34
2023-04-20T11:35:20.806Z,98672.22
2023-04-20T11:36:24.833Z,98678.97
2023-04-20T11:37:26.890Z,98668.56
2023-04-20T11:38:31.399Z,98677.16
2023-04-20T11:39:34.110Z,98674.34
2023-04-20T11:40:37.176Z,98674.66
2023-04-20T11:41:39.059Z,98671.50
2023-04-20T11:42:42.042Z,98677.09
2023-04-20T11:43:44.258Z,98674.25
2023-04-20T11:44:47.082Z,98678.53
2023-04-20T11:45:50.168Z,98670.94
2023-04-20T11:46:54.269Z,98674.88
2023-04-20T11:47:57.072Z,98671.53
2023-04-20T11:49:02.195Z,98670.31
2023-04-20T11:50:06.457Z,98662.19
2023-04-20T11:51:09.401Z,98675.88
2023-04-20T11:52:11.420Z,98674.69
2023-04-20T11:53:14.806Z,98673.53
2023-04-20T11:54:16.831Z,98664.06
2023-04-20T11:55:20.185Z,98674.13
2023-04-20T11:56:21.983Z,98675.56
2023-04-20T11:57:25.670Z,98674.22
2023-04-20T11:58:27.636Z,98671.84
2023-04-20T11:59:30.615Z,98664.38
2023-04-20T12:00:32.547Z,98663.69
2023-04-20T12:01:35.896Z,98667.06
2023-04-20T12:02:37.890Z,98667.00
2023-04-20T12:03:40.973Z,98671.91
2023-04-20T12:04:44.570Z,98676.50
2023-04-20T12:05:47.626Z,98672.13
2023-04-20T12:06:49.460Z,98669.78
2023-04-20T12:07:52.317Z,98670.69
2023-04-20T12:08:55.335Z,98671.91
2023-04-20T12:09:57.127Z,98672.81
2023-04-20T12:10:59.993Z,98670.63
2023-04-20T12:12:02.540Z,98667.59
2023-04-20T12:13:05.300Z,98667.09
2023-04-20T12:14:09.770Z,98663.91
2023-04-20T12:15:12.590Z,98660.94
2023-04-20T12:16:15.438Z,98657.31
2023-04-20T12:17:17.293Z,98660.66
2023-04-20T12:18:20.499Z,98655.97
2023-04-20T12:19:23.274Z,98657.00
2023-04-20T12:20:26.541Z,98653.69
2023-04-20T12:21:29.333Z,98647.44
2023-04-20T12:22:31.184Z,98655.41
2023-04-20T12:23:34.194Z,98651.09
2023-04-20T12:24:36.936Z,98657.28
2023-04-20T12:25:38.871Z,98656.13
2023-04-20T12:26:44.648Z,98649.03
2023-04-20T12:27:48.147Z,98642.69
2023-04-20T12:28:52.295Z,98654.94